Time;durP1;ratioP1;P1;durP2;ratioP2;P2;SDS_P1;SDS_P2;PMS_P1;PMS_P2;Temp;Humidity;BMP_temperature;BMP_pressure;BME280_temperature;BME280_humidity;BME280_pressure;Samples;Min_cycle;Max_cycle;Signal;HPM_P1;HPM_P2
2023/12/22 00:02:13;;;;;;;;;;;;;;;16.82;43.69;99256.66;5071619;28;1079;-56
2023/12/22 00:04:38;;;;;;;;;;;;;;;16.93;42.89;99255.63;5079172;28;1087;-51
2023/12/22 00:07:04;;;;;;;;;;;;;;;16.08;44.79;99257.50;5079217;28;1075;-52
2023/12/22 00:09:29;;;;;;;;;;;;;;;15.72;45.40;99260.78;5078652;28;1150;-53
2023/12/22 00:11:55;;;;;;;;;;;;;;;15.49;46.52;99269.91;5076099;28;1198;-55
2023/12/22 00:14:20;;;;;;;;;;;;;;;17.01;42.91;99251.22;5078593;28;2001;-55
2023/12/22 00:16:46;;;;;;;;;;;;;;;16.67;43.40;99253.69;5078662;28;1068;-55
2023/12/22 00:19:12;;;;;;;;;;;;;;;15.85;45.19;99252.53;5078574;28;1068;-55
2023/12/22 00:21:37;;;;;;;;;;;;;;;15.65;45.57;99248.09;5078545;28;1091;-54
2023/12/22 00:24:03;;;;;;;;;;;;;;;16.13;44.69;99226.06;5077791;28;1119;-54
2023/12/22 00:26:28;;;;;;;;;;;;;;;17.35;42.03;99230.28;5078704;28;1039;-55
2023/12/22 00:28:54;;;;;;;;;;;;;;;16.34;44.11;99225.81;5078206;28;1115;-52
2023/12/22 00:31:19;;;;;;;;;;;;;;;15.85;45.10;99229.47;5078257;28;1134;-54
2023/12/22 00:33:45;;;;;;;;;;;;;;;15.53;46.00;99230.69;5078205;28;1921;-53
2023/12/22 00:36:10;;;;;;;;;;;;;;;16.84;43.23;99217.50;5074996;28;1116;-51
2023/12/22 00:38:36;;;;;;;;;;;;;;;16.92;42.84;99222.91;5071751;28;924;-54
2023/12/22 00:41:01;;;;;;;;;;;;;;;16.06;44.59;99206.41;5069695;28;1162;-54
2023/12/22 00:43:27;;;;;;;;;;;;;;;15.69;45.55;99210.69;5078009;28;1123;-54
2023/12/22 00:45:52;;;;;;;;;;;;;;;16.25;44.67;99205.44;5077812;28;1080;-52
2023/12/22 00:48:18;;;;;;;;;;;;;;;17.11;42.32;99205.16;5056559;28;1075;-55
2023/12/22 00:50:43;;;;;;;;;;;;;;;16.21;44.21;99202.28;5069510;28;1082;-55
2023/12/22 00:53:09;;;;;;;;;;;;;;;15.66;45.53;99204.69;5077954;28;1979;-54
2023/12/22 00:55:35;;;;;;;;;;;;;;;16.01;45.01;99207.69;5078180;28;1096;-56
2023/12/22 00:58:00;;;;;;;;;;;;;;;17.37;41.93;99202.53;5077769;28;1087;-56
2023/12/22 01:00:26;;;;;;;;;;;;;;;16.46;43.58;99199.06;5074077;28;1114;-55
2023/12/22 01:02:51;;;;;;;;;;;;;;;15.89;45.09;99195.56;5075785;28;1067;-54
2023/12/22 01:05:17;;;;;;;;;;;;;;;15.60;45.76;99196.50;5077765;28;1119;-55
2023/12/22 01:07:42;;;;;;;;;;;;;;;17.02;42.89;99194.44;5077642;28;1099;-54
2023/12/22 01:10:09;;;;;;;;;;;;;;;16.71;42.96;99188.69;5077817;28;1087;-55
2023/12/22 01:12:34;;;;;;;;;;;;;;;15.92;44.96;99176.69;5073531;28;1979;-54
2023/12/22 01:15:00;;;;;;;;;;;;;;;15.58;45.54;99169.31;5068699;28;1063;-54
2023/12/22 01:17:26;;;;;;;;;;;;;;;16.56;43.66;99164.47;5077260;28;1103;-55
2023/12/22 01:19:51;;;;;;;;;;;;;;;17.07;42.01;99167.41;5077623;28;1163;-52
2023/12/22 01:22:17;;;;;;;;;;;;;;;16.17;44.33;99161.09;5065322;28;1123;-56
2023/12/22 01:24:43;;;;;;;;;;;;;;;15.75;45.37;99152.63;5072757;28;1027;-56
2023/12/22 01:27:09;;;;;;;;;;;;;;;15.48;45.92;99150.78;5075917;28;1187;-56
2023/12/22 01:29:35;;;;;;;;;;;;;;;16.77;43.49;99145.59;5077736;28;1207;-54
2023/12/22 01:32:00;;;;;;;;;;;;;;;17.13;42.13;99131.47;5077009;28;1345;-52
2023/12/22 01:34:25;;;;;;;;;;;;;;;16.14;44.44;99127.75;5077169;28;1917;-55
2023/12/22 01:36:51;;;;;;;;;;;;;;;15.77;45.22;99132.13;5075515;28;1059;-55
2023/12/22 01:39:17;;;;;;;;;;;;;;;15.49;46.13;99121.50;5077200;28;1218;-52
2023/12/22 01:41:42;;;;;;;;;;;;;;;17.01;42.85;99121.06;5077233;28;1123;-56
2023/12/22 01:44:08;;;;;;;;;;;;;;;16.72;42.91;99123.97;5076643;28;1070;-56
2023/12/22 01:46:34;;;;;;;;;;;;;;;15.98;44.81;99115.13;5076814;28;1103;-56
2023/12/22 01:49:01;;;;;;;;;;;;;;;15.63;45.75;99116.69;5071818;28;1122;-52
2023/12/22 01:51:26;;;;;;;;;;;;;;;15.64;45.44;99110.41;5073990;28;1071;-53
2023/12/22 01:53:52;;;;;;;;;;;;;;;17.17;42.25;99110.69;5075451;28;1906;-56
2023/12/22 01:56:18;;;;;;;;;;;;;;;16.38;43.65;99097.13;5076646;28;1151;-56
2023/12/22 01:58:43;;;;;;;;;;;;;;;15.78;44.80;99082.59;5076933;28;1131;-51
2023/12/22 02:01:17;;;;;;;;;;;;;;;16.08;44.61;99093.03;5056342;28;1265;-53
2023/12/22 02:03:43;;;;;;;;;;;;;;;17.22;41.92;99097.78;5058812;28;1115;-54
2023/12/22 02:06:08;;;;;;;;;;;;;;;16.32;43.91;99099.56;5059173;28;1070;-53
2023/12/22 02:08:34;;;;;;;;;;;;;;;15.77;44.89;99091.50;5076185;28;1094;-54
2023/12/22 02:10:59;;;;;;;;;;;;;;;15.50;45.71;99101.09;5076523;28;1048;-55
2023/12/22 02:13:25;;;;;;;;;;;;;;;16.89;42.67;99098.38;5069156;28;1909;-51
2023/12/22 02:15:53;;;;;;;;;;;;;;;16.69;42.85;99079.97;5056326;28;1064;-53
2023/12/22 02:18:20;;;;;;;;;;;;;;;15.85;44.90;99074.88;5058751;28;1125;-51
2023/12/22 02:20:46;;;;;;;;;;;;;;;15.62;45.25;99062.84;5076564;28;1071;-55
2023/12/22 02:23:11;;;;;;;;;;;;;;;16.95;42.60;99067.72;5076189;28;1094;-55
2023/12/22 02:25:37;;;;;;;;;;;;;;;16.89;42.45;99058.53;5073359;28;1118;-54
2023/12/22 02:28:07;;;;;;;;;;;;;;;15.99;44.49;99047.88;5076436;28;1155;-54
2023/12/22 02:30:36;;;;;;;;;;;;;;;15.66;45.12;99042.19;5076687;28;1162;-54
2023/12/22 02:33:03;;;;;;;;;;;;;;;16.01;44.90;99039.75;5075732;28;1979;-54
2023/12/22 02:35:29;;;;;;;;;;;;;;;17.10;42.06;99038.78;5075905;28;1099;-55
2023/12/22 02:37:56;;;;;;;;;;;;;;;16.13;43.80;99027.91;5066168;28;1011;-53
2023/12/22 02:40:21;;;;;;;;;;;;;;;15.68;44.94;99024.31;5075357;28;1064;-53
2023/12/22 02:42:47;;;;;;;;;;;;;;;15.82;45.29;99027.41;5058602;28;1075;-55
2023/12/22 02:45:15;;;;;;;;;;;;;;;17.23;41.89;99015.25;5057492;28;1032;-54
2023/12/22 02:47:41;;;;;;;;;;;;;;;16.33;43.49;99013.66;5064280;28;1138;-53
2023/12/22 02:50:07;;;;;;;;;;;;;;;15.81;44.99;99016.00;5069629;28;1067;-52
2023/12/22 02:52:33;;;;;;;;;;;;;;;15.67;45.23;99014.69;5076223;28;1902;-56
2023/12/22 02:54:58;;;;;;;;;;;;;;;17.16;42.00;99018.69;5075627;28;1460;-54
2023/12/22 02:57:24;;;;;;;;;;;;;;;16.69;42.87;99016.25;5075807;28;1040;-56
2023/12/22 02:59:49;;;;;;;;;;;;;;;16.06;44.04;99008.31;5076357;28;1313;-55
2023/12/22 03:02:15;;;;;;;;;;;;;;;15.62;45.14;99008.97;5074621;28;900;-53
2023/12/22 03:04:40;;;;;;;;;;;;;;;16.44;43.55;99012.59;5076147;28;1317;-51
2023/12/22 03:07:06;;;;;;;;;;;;;;;17.25;41.58;98997.31;5079758;28;1024;-52
2023/12/22 03:09:32;;;;;;;;;;;;;;;16.13;43.95;99001.38;5080221;28;1134;-53
2023/12/22 03:12:01;;;;;;;;;;;;;;;15.73;44.69;98989.41;5080280;28;1194;-55
2023/12/22 03:14:30;;;;;;;;;;;;;;;16.09;44.31;98980.63;5071548;28;1987;-55
2023/12/22 03:16:56;;;;;;;;;;;;;;;17.05;41.92;98985.25;5080137;28;1094;-54
2023/12/22 03:19:22;;;;;;;;;;;;;;;16.09;43.96;98980.63;5079457;28;1409;-55
2023/12/22 03:21:48;;;;;;;;;;;;;;;15.67;45.29;98978.41;5079630;28;1202;-53
2023/12/22 03:24:13;;;;;;;;;;;;;;;16.16;44.50;98977.22;5079256;28;1146;-55
2023/12/22 03:26:39;;;;;;;;;;;;;;;17.39;41.54;98968.47;5077851;28;919;-55
2023/12/22 03:29:05;;;;;;;;;;;;;;;16.44;43.40;98973.63;5079533;28;1110;-55
2023/12/22 03:31:30;;;;;;;;;;;;;;;15.90;44.59;98961.22;5079651;28;1110;-55
2023/12/22 03:33:56;;;;;;;;;;;;;;;15.54;45.11;98956.72;5078757;28;1978;-55
2023/12/22 03:36:21;;;;;;;;;;;;;;;16.26;44.25;98966.53;5079563;28;1075;-53
2023/12/22 03:38:47;;;;;;;;;;;;;;;17.20;41.75;98970.38;5071946;28;1088;-56
2023/12/22 03:41:12;;;;;;;;;;;;;;;16.20;43.60;98961.81;5079494;28;1267;-55
2023/12/22 03:43:38;;;;;;;;;;;;;;;15.72;44.72;98955.91;5079038;28;1059;-53
2023/12/22 03:46:03;;;;;;;;;;;;;;;15.42;45.72;98951.66;5079309;28;1121;-55
2023/12/22 03:48:29;;;;;;;;;;;;;;;16.71;43.20;98949.72;5079414;28;1163;-56
2023/12/22 03:50:54;;;;;;;;;;;;;;;17.10;41.92;98953.75;5078269;28;865;-56
2023/12/22 03:53:20;;;;;;;;;;;;;;;16.13;43.90;98944.88;5065451;28;1909;-54
2023/12/22 03:55:46;;;;;;;;;;;;;;;15.65;45.11;98937.94;5078472;28;1114;-54
2023/12/22 03:58:11;;;;;;;;;;;;;;;15.62;45.60;98934.78;5078783;28;1032;-52
2023/12/22 04:00:37;;;;;;;;;;;;;;;17.06;42.19;98937.28;5079284;28;1131;-54
2023/12/22 04:03:02;;;;;;;;;;;;;;;16.24;43.65;98935.81;5071219;28;1209;-55
2023/12/22 04:05:28;;;;;;;;;;;;;;;15.70;45.16;98936.69;5079333;28;1151;-53
2023/12/22 04:07:53;;;;;;;;;;;;;;;16.14;44.20;98944.72;5078675;28;1190;-53
2023/12/22 04:10:19;;;;;;;;;;;;;;;17.28;41.71;98942.19;5079321;28;1150;-54
2023/12/22 04:12:44;;;;;;;;;;;;;;;16.26;43.79;98937.34;5078855;28;1910;-54
2023/12/22 04:15:10;;;;;;;;;;;;;;;15.72;45.24;98940.84;5077458;28;879;-56
2023/12/22 04:17:35;;;;;;;;;;;;;;;16.21;44.06;98930.81;5077509;28;1020;-55
2023/12/22 04:20:01;;;;;;;;;;;;;;;17.14;41.81;98933.84;5078718;28;1063;-53
2023/12/22 04:22:26;;;;;;;;;;;;;;;16.15;43.82;98922.50;5077983;28;1180;-52
2023/12/22 04:24:52;;;;;;;;;;;;;;;15.73;44.84;98929.25;5078553;28;1063;-51
2023/12/22 04:27:17;;;;;;;;;;;;;;;15.43;45.70;98920.69;5069846;28;1408;-53
2023/12/22 04:29:43;;;;;;;;;;;;;;;16.92;42.53;98930.72;5078800;28;1108;-54
2023/12/22 04:32:09;;;;;;;;;;;;;;;16.72;42.52;98925.66;5077987;28;1191;-50
2023/12/22 04:34:34;;;;;;;;;;;;;;;15.93;44.30;98922.97;5078434;28;1982;-58
2023/12/22 04:37:00;;;;;;;;;;;;;;;15.56;45.36;98920.31;5078350;28;1039;-59
2023/12/22 04:39:25;;;;;;;;;;;;;;;16.23;43.90;98911.09;5075260;28;895;-58
2023/12/22 04:41:51;;;;;;;;;;;;;;;17.04;41.86;98920.66;5078356;28;1225;-57
2023/12/22 04:44:16;;;;;;;;;;;;;;;16.07;43.86;98916.28;5060046;28;1130;-57
2023/12/22 04:46:42;;;;;;;;;;;;;;;15.67;45.10;98911.28;5078039;28;1059;-57
2023/12/22 04:49:07;;;;;;;;;;;;;;;16.56;43.31;98907.00;5077887;28;1114;-57
2023/12/22 04:51:33;;;;;;;;;;;;;;;16.80;42.46;98900.16;5067262;28;1090;-52
2023/12/22 04:53:58;;;;;;;;;;;;;;;15.93;44.10;98891.97;5077820;28;1918;-57
2023/12/22 04:56:24;;;;;;;;;;;;;;;15.62;45.18;98890.56;5056474;28;1151;-57
2023/12/22 04:58:50;;;;;;;;;;;;;;;16.30;43.68;98892.75;5058043;28;1083;-59
2023/12/22 05:01:15;;;;;;;;;;;;;;;17.17;41.57;98903.44;5076012;28;1134;-56
2023/12/22 05:03:41;;;;;;;;;;;;;;;16.12;43.69;98898.09;5073345;28;896;-53
2023/12/22 05:06:07;;;;;;;;;;;;;;;15.73;44.62;98896.63;5062713;28;1151;-54
2023/12/22 05:08:32;;;;;;;;;;;;;;;15.70;44.94;98895.09;5077791;28;1480;-49
2023/12/22 05:10:58;;;;;;;;;;;;;;;17.18;41.85;98895.34;5077326;28;1278;-52
2023/12/22 05:13:23;;;;;;;;;;;;;;;16.43;43.18;98887.03;5076564;28;1934;-51
2023/12/22 05:15:49;;;;;;;;;;;;;;;15.87;44.64;98884.63;5076958;28;1277;-50
2023/12/22 05:18:14;;;;;;;;;;;;;;;15.55;45.03;98886.84;5077173;28;1218;-49
2023/12/22 05:20:40;;;;;;;;;;;;;;;16.14;44.31;98894.31;5076824;28;1282;-53
2023/12/22 05:23:05;;;;;;;;;;;;;;;17.31;41.50;98900.19;5077400;28;1219;-51
2023/12/22 05:25:31;;;;;;;;;;;;;;;16.63;42.88;98897.41;5076808;28;1265;-55
2023/12/22 05:27:57;;;;;;;;;;;;;;;17.16;41.66;98894.66;5075710;28;1404;-52
2023/12/22 05:30:22;;;;;;;;;;;;;;;15.64;45.02;98890.41;5077171;28;1332;-52
2023/12/22 05:32:48;;;;;;;;;;;;;;;15.91;45.06;98897.41;5076871;28;1910;-54
2023/12/22 05:35:13;;;;;;;;;;;;;;;16.48;43.23;98894.53;5076504;28;1135;-52
2023/12/22 05:37:39;;;;;;;;;;;;;;;16.52;43.47;98904.66;5077115;28;1411;-53
2023/12/22 05:40:06;;;;;;;;;;;;;;;18.10;40.15;98906.88;5076931;28;1344;-54
2023/12/22 05:42:32;;;;;;;;;;;;;;;16.39;43.27;98894.47;5077418;28;1170;-55
2023/12/22 05:44:58;;;;;;;;;;;;;;;15.67;44.81;98893.59;5073804;28;1043;-54
2023/12/22 05:47:23;;;;;;;;;;;;;;;16.86;43.01;98894.19;5057721;28;1054;-56
2023/12/22 05:49:49;;;;;;;;;;;;;;;16.51;42.91;98896.84;5073419;28;1055;-56
2023/12/22 05:52:14;;;;;;;;;;;;;;;15.63;44.97;98904.66;5073898;28;1349;-53
2023/12/22 05:54:40;;;;;;;;;;;;;;;17.48;41.58;98908.19;5076699;28;1977;-54
2023/12/22 05:57:06;;;;;;;;;;;;;;;16.36;43.32;98891.28;5076151;28;1359;-53
2023/12/22 05:59:34;;;;;;;;;;;;;;;16.91;43.08;98899.03;5076796;28;1254;-51
2023/12/22 06:02:00;;;;;;;;;;;;;;;17.69;40.78;98917.50;5075482;28;1369;-55
2023/12/22 06:04:26;;;;;;;;;;;;;;;17.25;41.78;98901.66;5069127;28;1183;-52
2023/12/22 06:06:52;;;;;;;;;;;;;;;18.70;38.66;98889.81;5065502;28;1369;-58
2023/12/22 06:09:20;;;;;;;;;;;;;;;17.36;41.30;98894.38;5072882;28;1043;-50
2023/12/22 06:11:45;;;;;;;;;;;;;;;16.45;43.12;98889.53;5060517;28;1052;-48
2023/12/22 06:14:11;;;;;;;;;;;;;;;16.15;44.13;98897.78;5069818;28;1970;-48
2023/12/22 06:16:36;;;;;;;;;;;;;;;18.07;40.18;98887.75;5074604;28;1040;-53
2023/12/22 06:19:02;;;;;;;;;;;;;;;16.40;43.29;98885.50;5076396;28;1223;-47
2023/12/22 06:21:27;;;;;;;;;;;;;;;17.17;42.53;98888.34;5076083;28;1175;-53
2023/12/22 06:23:53;;;;;;;;;;;;;;;17.21;41.75;98889.69;5075393;28;1385;-53
2023/12/22 06:26:18;;;;;;;;;;;;;;;16.22;43.62;98893.53;5058073;28;1353;-50
2023/12/22 06:28:44;;;;;;;;;;;;;;;17.83;41.08;98887.59;5065155;28;838;-52
2023/12/22 06:31:18;;;;;;;;;;;;;;;16.65;43.17;98884.78;5076517;28;1117;-50
2023/12/22 06:33:44;;;;;;;;;;;;;;;16.01;44.14;98880.63;5075329;28;1903;-53
2023/12/22 06:36:22;;;;;;;;;;;;;;;16.54;43.92;98872.66;5076266;28;1380;-50
2023/12/22 06:38:48;;;;;;;;;;;;;;;16.49;43.41;98861.66;5074030;28;1262;-49
2023/12/22 06:41:22;;;;;;;;;;;;;;;16.33;44.30;98870.38;5074933;28;1314;-51
2023/12/22 06:43:48;;;;;;;;;;;;;;;17.83;40.72;98862.84;5075617;28;1322;-52
2023/12/22 06:46:14;;;;;;;;;;;;;;;16.37;43.92;98863.75;5075749;28;1243;-52
2023/12/22 06:48:40;;;;;;;;;;;;;;;16.33;44.44;98863.22;5075758;28;1317;-52
2023/12/22 06:51:05;;;;;;;;;;;;;;;16.72;42.77;98861.09;5072338;28;1175;-53
2023/12/22 06:53:31;;;;;;;;;;;;;;;16.29;44.62;98867.19;5060402;28;1930;-53
2023/12/22 06:55:56;;;;;;;;;;;;;;;18.31;40.19;98859.47;5076200;28;1142;-53
2023/12/22 06:58:25;;;;;;;;;;;;;;;16.62;43.01;98859.41;5058048;28;1111;-50
2023/12/22 07:00:51;;;;;;;;;;;;;;;16.47;44.01;98856.53;5067075;28;1067;-53
2023/12/22 07:03:17;;;;;;;;;;;;;;;17.56;41.25;98863.00;5061972;28;1134;-52
2023/12/22 07:05:43;;;;;;;;;;;;;;;16.39;43.54;98856.47;5065315;28;1066;-52
2023/12/22 07:08:08;;;;;;;;;;;;;;;16.38;44.11;98847.69;5073923;28;1090;-52
2023/12/22 07:10:34;;;;;;;;;;;;;;;17.24;42.04;98859.28;5065355;28;1249;-51
2023/12/22 07:12:59;;;;;;;;;;;;;;;16.18;43.74;98852.41;5073037;28;1978;-49
2023/12/22 07:15:25;;;;;;;;;;;;;;;17.87;41.17;98854.34;5071172;28;1235;-49
2023/12/22 07:17:51;;;;;;;;;;;;;;;16.73;42.89;98850.31;5069249;28;1124;-48
2023/12/22 07:20:16;;;;;;;;;;;;;;;16.11;43.83;98848.69;5056073;28;1082;-52
2023/12/22 07:22:44;;;;;;;;;;;;;;;17.48;42.18;98850.53;5069430;28;1166;-53
2023/12/22 07:25:10;;;;;;;;;;;;;;;16.50;43.82;98847.41;5066996;28;1138;-47
2023/12/22 07:27:35;;;;;;;;;;;;;;;18.39;39.96;98837.31;5075218;28;1093;-50
2023/12/22 07:30:01;;;;;;;;;;;;;;;17.36;41.48;98830.59;5075862;28;1083;-52
2023/12/22 07:32:26;;;;;;;;;;;;;;;15.65;46.50;98829.28;5070836;28;1134;-49
2023/12/22 07:34:52;;;;;;;;;;;;;;;18.32;40.32;98829.19;5066886;28;1910;-47
2023/12/22 07:37:17;;;;;;;;;;;;;;;16.86;42.80;98828.66;5068920;28;1154;-54
2023/12/22 07:39:45;;;;;;;;;;;;;;;16.18;44.17;98827.69;5060775;28;1143;-49
2023/12/22 07:42:10;;;;;;;;;;;;;;;17.63;41.41;98817.97;5062020;28;1075;-52
2023/12/22 07:44:36;;;;;;;;;;;;;;;16.43;43.65;98819.84;5072901;28;1202;-53
2023/12/22 07:47:01;;;;;;;;;;;;;;;16.07;43.88;98826.94;5065527;28;1199;-51
2023/12/22 07:49:27;;;;;;;;;;;;;;;17.38;41.95;98828.59;5075241;28;1035;-52
2023/12/22 07:51:53;;;;;;;;;;;;;;;16.33;44.19;98823.44;5075289;28;1098;-50
2023/12/22 07:54:18;;;;;;;;;;;;;;;18.33;40.20;98817.53;5076422;28;1910;-47
2023/12/22 07:56:44;;;;;;;;;;;;;;;17.40;41.83;98823.94;5068028;28;1163;-54
2023/12/22 07:59:09;;;;;;;;;;;;;;;16.49;43.38;98828.00;5077279;28;1058;-52
2023/12/22 08:01:35;;;;;;;;;;;;;;;16.10;43.76;98834.59;5059244;28;1401;-51
2023/12/22 08:04:00;;;;;;;;;;;;;;;17.90;41.00;98831.09;5065125;28;1131;-48
2023/12/22 08:06:26;;;;;;;;;;;;;;;16.48;43.42;98846.75;5070784;28;1194;-52
2023/12/22 08:08:51;;;;;;;;;;;;;;;16.13;44.37;98849.38;5042948;28;1423;-52
2023/12/22 08:11:17;;;;;;;;;;;;;;;16.87;42.71;98859.50;5075125;28;1616;-50
2023/12/22 08:13:42;;;;;;;;;;;;;;;16.07;44.04;98865.88;5074252;28;1981;-51
2023/12/22 08:16:08;;;;;;;;;;;;;;;17.36;42.52;98865.13;5064110;28;914;-54
2023/12/22 08:18:33;;;;;;;;;;;;;;;16.61;43.29;98865.72;5060396;28;1123;-54
2023/12/22 08:20:59;;;;;;;;;;;;;;;16.59;44.22;98865.03;5070382;28;1211;-54
2023/12/22 08:23:24;;;;;;;;;;;;;;;17.69;41.25;98857.19;5072308;28;1091;-50
2023/12/22 08:25:50;;;;;;;;;;;;;;;16.40;43.67;98861.63;5066901;28;1187;-52
2023/12/22 08:28:15;;;;;;;;;;;;;;;16.64;43.98;98856.59;5068120;28;913;-53
2023/12/22 08:30:41;;;;;;;;;;;;;;;16.72;43.00;98850.47;5058833;28;1064;-52
2023/12/22 08:33:06;;;;;;;;;;;;;;;16.13;44.03;98860.00;5073152;28;1967;-56
2023/12/22 08:35:32;;;;;;;;;;;;;;;16.71;43.71;98854.97;5070410;28;1110;-53
2023/12/22 08:37:57;;;;;;;;;;;;;;;16.97;42.56;98846.09;5073447;28;1430;-54
2023/12/22 08:40:25;;;;;;;;;;;;;;;16.15;44.01;98842.91;5066238;28;1146;-54
2023/12/22 08:42:54;;;;;;;;;;;;;;;17.72;41.60;98834.75;5065680;28;1046;-54
2023/12/22 08:45:20;;;;;;;;;;;;;;;16.72;43.07;98834.53;5077858;28;1116;-51
2023/12/22 08:47:46;;;;;;;;;;;;;;;16.08;44.27;98833.09;5077814;28;1063;-51
2023/12/22 08:50:12;;;;;;;;;;;;;;;17.38;41.87;98824.09;5078057;28;1103;-55
2023/12/22 08:52:38;;;;;;;;;;;;;;;16.27;43.68;98816.94;5069691;28;1976;-54
2023/12/22 08:55:05;;;;;;;;;;;;;;;17.08;42.97;98817.56;5059125;28;1114;-49
2023/12/22 08:57:31;;;;;;;;;;;;;;;16.75;43.01;98815.63;5078071;28;1091;-52
2023/12/22 08:59:57;;;;;;;;;;;;;;;16.19;44.49;98808.09;5062662;28;1135;-55
2023/12/22 09:02:22;;;;;;;;;;;;;;;17.85;40.79;98803.16;5066429;28;1060;-48
2023/12/22 09:04:48;;;;;;;;;;;;;;;16.50;43.43;98802.28;5070680;28;1322;-49
2023/12/22 09:07:13;;;;;;;;;;;;;;;17.37;42.51;98795.03;5075176;28;1318;-51
2023/12/22 09:09:40;;;;;;;;;;;;;;;17.07;42.27;98798.13;5073855;28;1398;-50
2023/12/22 09:12:05;;;;;;;;;;;;;;;16.27;43.77;98784.28;5073381;28;1235;-51
2023/12/22 09:14:31;;;;;;;;;;;;;;;16.11;44.39;98779.72;5073136;28;1993;-53
2023/12/22 09:16:56;;;;;;;;;;;;;;;17.95;40.92;98770.22;5070679;28;1306;-55
2023/12/22 09:19:22;;;;;;;;;;;;;;;16.47;43.45;98757.47;5070404;28;1354;-53
2023/12/22 09:21:47;;;;;;;;;;;;;;;16.06;44.24;98751.03;5070406;28;1073;-54
2023/12/22 09:24:13;;;;;;;;;;;;;;;17.38;42.58;98762.97;5072713;28;1373;-49
2023/12/22 09:26:39;;;;;;;;;;;;;;;16.67;43.24;98768.66;5072824;28;1243;-53
2023/12/22 09:29:05;;;;;;;;;;;;;;;16.22;43.77;98774.16;5070879;28;1338;-52
2023/12/22 09:31:30;;;;;;;;;;;;;;;15.88;43.61;98759.84;5072821;28;1402;-54
2023/12/22 09:33:57;;;;;;;;;;;;;;;17.40;42.43;98759.34;5065768;28;1984;-52
2023/12/22 09:36:22;;;;;;;;;;;;;;;16.51;43.43;98764.16;5071203;28;1196;-49
2023/12/22 09:38:47;;;;;;;;;;;;;;;16.99;43.33;98750.31;5076693;28;1179;-53
2023/12/22 09:41:13;;;;;;;;;;;;;;;17.73;41.21;98746.81;5076519;28;1254;-54
2023/12/22 09:43:39;;;;;;;;;;;;;;;16.35;43.70;98739.19;5059216;28;1107;-52
2023/12/22 09:46:05;;;;;;;;;;;;;;;16.51;44.23;98749.06;5075990;28;1146;-52
2023/12/22 09:48:30;;;;;;;;;;;;;;;16.95;42.76;98733.84;5064517;28;1149;-56
2023/12/22 09:50:56;;;;;;;;;;;;;;;16.06;44.39;98729.81;5058914;28;1231;-55
2023/12/22 09:53:22;;;;;;;;;;;;;;;15.85;44.02;98727.53;5057210;28;1976;-52
2023/12/22 09:55:48;;;;;;;;;;;;;;;17.56;42.20;98724.75;5058431;28;1280;-51
2023/12/22 09:58:14;;;;;;;;;;;;;;;16.37;44.06;98731.91;5067740;28;1218;-52
2023/12/22 10:00:40;;;;;;;;;;;;;;;15.98;45.32;98722.63;5072653;28;1242;-56
2023/12/22 10:03:06;;;;;;;;;;;;;;;16.95;42.96;98719.78;5076181;28;1293;-55
2023/12/22 10:05:32;;;;;;;;;;;;;;;16.09;44.62;98710.94;5065326;28;1170;-53
2023/12/22 10:07:57;;;;;;;;;;;;;;;18.18;40.74;98717.13;5067809;28;1234;-55
2023/12/22 10:10:23;;;;;;;;;;;;;;;16.91;42.80;98702.50;5058592;28;1150;-57
2023/12/22 10:12:48;;;;;;;;;;;;;;;16.20;44.08;98698.38;5048513;28;1902;-52
2023/12/22 10:15:14;;;;;;;;;;;;;;;17.58;41.85;98696.16;5055570;28;1051;-50
2023/12/22 10:17:40;;;;;;;;;;;;;;;16.27;44.24;98686.09;5075247;28;887;-49
2023/12/22 10:20:06;;;;;;;;;;;;;;;17.55;42.15;98688.53;5076574;28;1186;-53
2023/12/22 10:22:31;;;;;;;;;;;;;;;17.28;42.01;98679.94;5076440;28;1093;-51
2023/12/22 10:24:57;;;;;;;;;;;;;;;16.45;43.83;98678.03;5071928;28;1422;-52
2023/12/22 10:27:22;;;;;;;;;;;;;;;16.46;44.38;98678.88;5067634;28;1185;-51
2023/12/22 10:29:48;;;;;;;;;;;;;;;17.04;42.51;98672.78;5067894;28;1559;-54
2023/12/22 10:32:14;;;;;;;;;;;;;;;16.08;44.41;98664.16;5066768;28;1176;-49
2023/12/22 10:34:41;;;;;;;;;;;;;;;18.08;41.28;98663.25;5074695;28;1913;-55
2023/12/22 10:37:06;;;;;;;;;;;;;;;16.69;43.31;98654.34;5071148;28;1135;-52
2023/12/22 10:39:32;;;;;;;;;;;;;;;17.44;42.28;98657.81;5066544;28;1287;-53
2023/12/22 10:41:58;;;;;;;;;;;;;;;17.80;41.08;98661.84;5061898;28;1007;-52
2023/12/22 10:44:24;;;;;;;;;;;;;;;16.54;43.75;98657.66;5056791;28;1021;-53
2023/12/22 10:46:49;;;;;;;;;;;;;;;16.16;43.81;98650.09;5071484;28;1074;-54
2023/12/22 10:49:15;;;;;;;;;;;;;;;17.42;42.07;98635.06;5056219;28;1118;-53
2023/12/22 10:51:42;;;;;;;;;;;;;;;16.39;43.53;98638.88;5073452;28;1191;-52
2023/12/22 10:54:08;;;;;;;;;;;;;;;16.75;43.91;98643.88;5073268;28;1903;-54
2023/12/22 10:56:34;;;;;;;;;;;;;;;16.88;42.92;98637.28;5052857;28;1257;-51
2023/12/22 10:58:59;;;;;;;;;;;;;;;16.24;43.97;98631.56;5075629;28;1492;-50
2023/12/22 11:01:27;;;;;;;;;;;;;;;17.94;41.40;98636.38;5075371;28;1560;-54
2023/12/22 11:03:52;;;;;;;;;;;;;;;16.46;43.84;98639.91;5075098;28;1294;-49
2023/12/22 11:06:18;;;;;;;;;;;;;;;15.98;44.17;98639.56;5075117;28;1302;-50
2023/12/22 11:08:44;;;;;;;;;;;;;;;16.22;44.83;98636.19;5057447;28;1372;-53
2023/12/22 11:11:13;;;;;;;;;;;;;;;17.60;41.56;98637.53;5075614;28;1357;-53
2023/12/22 11:13:39;;;;;;;;;;;;;;;16.26;44.00;98629.59;5055305;28;1989;-53
2023/12/22 11:16:05;;;;;;;;;;;;;;;16.13;44.95;98632.69;5057691;28;1408;-53
2023/12/22 11:18:30;;;;;;;;;;;;;;;17.11;42.50;98620.69;5061002;28;884;-52
2023/12/22 11:20:56;;;;;;;;;;;;;;;16.15;44.10;98625.41;5055750;28;1095;-47
2023/12/22 11:23:21;;;;;;;;;;;;;;;17.28;42.55;98624.16;5075449;28;1130;-50
2023/12/22 11:25:49;;;;;;;;;;;;;;;16.73;43.15;98619.31;5070992;28;1068;-51
2023/12/22 11:28:15;;;;;;;;;;;;;;;16.03;44.37;98611.59;5062205;28;1052;-49
2023/12/22 11:30:40;;;;;;;;;;;;;;;17.77;41.27;98630.28;5056840;28;1131;-48
2023/12/22 11:33:06;;;;;;;;;;;;;;;16.39;43.89;98633.56;5058100;28;1898;-48
2023/12/22 11:35:31;;;;;;;;;;;;;;;16.61;43.95;98628.63;5058986;28;1126;-49
2023/12/22 11:37:57;;;;;;;;;;;;;;;16.96;42.67;98628.47;5079010;28;1131;-50
2023/12/22 11:40:22;;;;;;;;;;;;;;;16.06;44.15;98630.84;5061475;28;1174;-49
2023/12/22 11:42:49;;;;;;;;;;;;;;;17.80;41.32;98626.47;5063434;28;903;-49
2023/12/22 11:45:16;;;;;;;;;;;;;;;16.60;43.29;98626.97;5060612;28;1182;-52
2023/12/22 11:47:45;;;;;;;;;;;;;;;15.99;43.91;98617.38;5066926;28;1143;-52
2023/12/22 11:50:11;;;;;;;;;;;;;;;16.98;43.43;98614.00;5059087;28;1028;-52
2023/12/22 11:52:36;;;;;;;;;;;;;;;16.85;42.86;98609.19;5072067;28;1000;-52
2023/12/22 11:55:02;;;;;;;;;;;;;;;16.14;43.90;98601.69;5075616;28;1988;-50
2023/12/22 11:57:28;;;;;;;;;;;;;;;17.90;40.99;98600.47;5079161;28;1195;-53
2023/12/22 12:00:10;;;;;;;;;;;;;;;16.54;43.25;98599.25;5058940;28;1047;-48
2023/12/22 12:02:40;;;;;;;;;;;;;;;16.53;44.11;98587.00;5063823;28;1231;-53
2023/12/22 12:05:06;;;;;;;;;;;;;;;17.00;42.59;98589.94;5078835;28;990;-57
2023/12/22 12:07:45;;;;;;;;;;;;;;;16.18;44.02;98581.81;5075334;28;1002;-55
2023/12/22 12:10:30;;;;;;;;;;;;;;;16.21;44.53;98592.09;5078965;28;1205;-55
2023/12/22 12:13:08;;;;;;;;;;;;;;;16.75;43.00;98588.13;5058215;28;1894;-55
2023/12/22 12:15:34;;;;;;;;;;;;;;;16.73;43.72;98589.31;5078494;28;1157;-58
2023/12/22 12:18:00;;;;;;;;;;;;;;;18.37;39.84;98583.78;5076071;28;1322;-57
2023/12/22 12:20:25;;;;;;;;;;;;;;;16.68;43.00;98578.34;5059811;28;941;-56
2023/12/22 12:22:51;;;;;;;;;;;;;;;16.18;43.99;98568.56;5049321;28;1012;-58
2023/12/22 12:25:17;;;;;;;;;;;;;;;17.35;42.27;98569.28;5078895;28;1063;-55
2023/12/22 12:27:43;;;;;;;;;;;;;;;16.32;43.82;98572.38;5078665;28;1158;-55
2023/12/22 12:30:12;;;;;;;;;;;;;;;16.25;44.54;98566.88;5069140;28;1082;-56
2023/12/22 12:32:37;;;;;;;;;;;;;;;17.22;42.11;98569.84;5068779;28;1100;-57
2023/12/22 12:35:03;;;;;;;;;;;;;;;16.23;44.08;98558.25;5065942;28;1898;-60
2023/12/22 12:37:29;;;;;;;;;;;;;;;15.93;44.35;98560.50;5076926;28;1297;-56
2023/12/22 12:39:55;;;;;;;;;;;;;;;17.09;43.01;98557.09;5077215;28;1298;-57
2023/12/22 12:42:20;;;;;;;;;;;;;;;16.62;43.24;98545.34;5075017;28;1278;-56
2023/12/22 12:44:47;;;;;;;;;;;;;;;16.16;44.73;98547.47;5059888;28;1259;-55
2023/12/22 12:47:13;;;;;;;;;;;;;;;17.87;40.84;98542.31;5060243;28;1255;-56
2023/12/22 12:49:39;;;;;;;;;;;;;;;16.46;43.66;98540.88;5078184;28;1337;-55
2023/12/22 12:52:05;;;;;;;;;;;;;;;16.09;44.12;98549.13;5077293;28;1262;-58